Time;durP1;ratioP1;P1;durP2;ratioP2;P2;SDS_P1;SDS_P2;PMS_P1;PMS_P2;Temp;Humidity;BMP_temperature;BMP_pressure;BME280_temperature;BME280_humidity;BME280_pressure;Samples;Min_cycle;Max_cycle;Signal;HPM_P1;HPM_P2
2024/01/18 00:01:39;;;;;;;0.50;0.50;;;;;;;;;;4955995;28;20113;-83
2024/01/18 00:04:05;;;;;;;0.40;0.40;;;;;;;;;;4955737;28;20145;-83
2024/01/18 00:06:32;;;;;;;0.60;0.60;;;;;;;;;;4971853;28;20138;-83
2024/01/18 00:08:58;;;;;;;0.50;0.50;;;;;;;;;;4955977;28;20071;-83
2024/01/18 00:11:25;;;;;;;0.50;0.50;;;;;;;;;;4956695;28;20034;-83
2024/01/18 00:13:51;;;;;;;0.50;0.50;;;;;;;;;;4955686;28;20046;-83
2024/01/18 00:16:17;;;;;;;0.50;0.50;;;;;;;;;;4955732;28;20049;-83
2024/01/18 00:18:43;;;;;;;0.60;0.60;;;;;;;;;;4955668;28;20054;-84
2024/01/18 00:21:09;;;;;;;0.60;0.60;;;;;;;;;;4955707;28;20489;-83
2024/01/18 00:23:35;;;;;;;0.50;0.50;;;;;;;;;;4955382;28;20088;-84
2024/01/18 00:26:02;;;;;;;0.60;0.60;;;;;;;;;;4955362;28;20039;-83
2024/01/18 00:28:28;;;;;;;0.50;0.50;;;;;;;;;;4955280;28;20045;-83
2024/01/18 00:30:54;;;;;;;0.60;0.60;;;;;;;;;;4955526;28;20436;-83
2024/01/18 00:33:20;;;;;;;0.50;0.50;;;;;;;;;;4954772;28;20039;-84
2024/01/18 00:35:46;;;;;;;0.55;0.55;;;;;;;;;;4955332;28;20068;-83
2024/01/18 00:38:12;;;;;;;0.60;0.60;;;;;;;;;;4955440;28;20043;-83
2024/01/18 00:40:38;;;;;;;0.50;0.50;;;;;;;;;;4955302;28;20050;-83
2024/01/18 00:43:05;;;;;;;0.60;0.60;;;;;;;;;;4963439;28;20042;-83
2024/01/18 00:45:31;;;;;;;0.50;0.50;;;;;;;;;;4974664;28;20048;-83
2024/01/18 00:47:57;;;;;;;0.50;0.50;;;;;;;;;;4957489;28;20130;-83
2024/01/18 00:50:23;;;;;;;0.50;0.50;;;;;;;;;;4970931;28;20050;-84
2024/01/18 00:52:49;;;;;;;0.60;0.60;;;;;;;;;;4954696;28;20043;-83
2024/01/18 00:55:15;;;;;;;0.50;0.50;;;;;;;;;;4955147;28;20053;-83
2024/01/18 00:57:42;;;;;;;0.57;0.57;;;;;;;;;;4971287;28;20039;-83
2024/01/18 01:00:08;;;;;;;0.60;0.60;;;;;;;;;;4955430;28;20089;-83
2024/01/18 01:02:34;;;;;;;0.50;0.50;;;;;;;;;;4970843;28;20039;-84
2024/01/18 01:05:00;;;;;;;0.60;0.60;;;;;;;;;;4954934;28;20506;-84
2024/01/18 01:07:26;;;;;;;0.60;0.60;;;;;;;;;;4955177;28;20081;-83
2024/01/18 01:09:52;;;;;;;0.50;0.50;;;;;;;;;;4970851;28;20047;-84
2024/01/18 01:12:18;;;;;;;0.50;0.50;;;;;;;;;;4954752;28;20035;-83
2024/01/18 01:14:44;;;;;;;0.50;0.50;;;;;;;;;;4955105;28;20046;-84
2024/01/18 01:17:10;;;;;;;0.50;0.50;;;;;;;;;;4971330;28;20474;-83
2024/01/18 01:19:36;;;;;;;0.50;0.50;;;;;;;;;;4954950;28;20076;-83
2024/01/18 01:22:02;;;;;;;0.50;0.50;;;;;;;;;;4970884;28;20047;-83
2024/01/18 01:24:28;;;;;;;0.50;0.50;;;;;;;;;;4954936;28;20192;-83
2024/01/18 01:26:54;;;;;;;0.55;0.55;;;;;;;;;;4954971;28;20090;-83
2024/01/18 01:29:20;;;;;;;0.50;0.50;;;;;;;;;;4970726;28;20047;-83
2024/01/18 01:31:48;;;;;;;0.52;0.52;;;;;;;;;;4954921;28;20039;-83
2024/01/18 01:34:14;;;;;;;0.50;0.50;;;;;;;;;;4954894;28;20460;-83
2024/01/18 01:36:40;;;;;;;0.52;0.52;;;;;;;;;;4961738;28;20042;-83
2024/01/18 01:39:06;;;;;;;0.60;0.60;;;;;;;;;;4974087;28;20073;-83
2024/01/18 01:41:32;;;;;;;0.60;0.60;;;;;;;;;;4986289;28;20133;-83
2024/01/18 01:43:59;;;;;;;0.60;0.60;;;;;;;;;;4954857;28;20054;-83
2024/01/18 01:46:25;;;;;;;0.60;0.60;;;;;;;;;;4970811;28;20043;-83
2024/01/18 01:48:52;;;;;;;0.60;0.60;;;;;;;;;;4954609;28;20137;-83
2024/01/18 01:51:18;;;;;;;0.50;0.50;;;;;;;;;;4954325;28;20039;-84
2024/01/18 01:53:45;;;;;;;0.60;0.60;;;;;;;;;;4954599;28;20049;-84
2024/01/18 01:56:11;;;;;;;0.50;0.50;;;;;;;;;;4954730;28;20035;-83
2024/01/18 01:58:37;;;;;;;0.60;0.60;;;;;;;;;;4955008;28;20049;-84
2024/01/18 02:01:03;;;;;;;0.50;0.50;;;;;;;;;;4973055;28;20047;-83
2024/01/18 02:03:29;;;;;;;0.60;0.60;;;;;;;;;;4957851;28;20141;-83
2024/01/18 02:05:55;;;;;;;0.50;0.50;;;;;;;;;;4957971;28;20052;-83
2024/01/18 02:08:22;;;;;;;0.50;0.50;;;;;;;;;;4958127;28;20046;-83
2024/01/18 02:10:48;;;;;;;0.60;0.60;;;;;;;;;;4957837;28;20460;-83
2024/01/18 02:13:15;;;;;;;0.40;0.40;;;;;;;;;;4957492;28;20343;-83
2024/01/18 02:15:41;;;;;;;0.50;0.50;;;;;;;;;;4958022;28;20125;-84
2024/01/18 02:18:07;;;;;;;0.60;0.60;;;;;;;;;;4973934;28;20038;-84
2024/01/18 02:20:33;;;;;;;0.60;0.60;;;;;;;;;;4957536;28;20038;-84
2024/01/18 02:23:01;;;;;;;0.60;0.60;;;;;;;;;;4957360;28;20724;-83
2024/01/18 02:25:28;;;;;;;0.52;0.52;;;;;;;;;;4958040;28;20070;-83
2024/01/18 02:27:57;;;;;;;0.55;0.55;;;;;;;;;;4957442;28;20047;-83
2024/01/18 02:30:23;;;;;;;0.47;0.47;;;;;;;;;;4957394;28;20456;-84
2024/01/18 02:32:50;;;;;;;0.50;0.50;;;;;;;;;;4973228;28;20451;-84
2024/01/18 02:35:16;;;;;;;0.60;0.60;;;;;;;;;;4957834;28;20050;-84
2024/01/18 02:37:42;;;;;;;0.60;0.60;;;;;;;;;;4973729;28;20043;-83
2024/01/18 02:40:09;;;;;;;0.50;0.50;;;;;;;;;;4957409;28;20039;-84
2024/01/18 02:42:35;;;;;;;0.50;0.50;;;;;;;;;;4957497;28;20048;-83
2024/01/18 02:45:03;;;;;;;0.50;0.50;;;;;;;;;;4956919;28;20042;-83
2024/01/18 02:47:30;;;;;;;0.50;0.50;;;;;;;;;;4973451;28;20382;-83
2024/01/18 02:49:56;;;;;;;0.50;0.50;;;;;;;;;;4957181;28;20046;-84
2024/01/18 02:52:22;;;;;;;0.60;0.60;;;;;;;;;;4972463;28;20082;-84
2024/01/18 02:54:48;;;;;;;0.57;0.57;;;;;;;;;;4957191;28;20485;-83
2024/01/18 02:57:14;;;;;;;0.50;0.50;;;;;;;;;;4957064;28;20039;-84
2024/01/18 02:59:40;;;;;;;0.40;0.40;;;;;;;;;;4957063;28;20050;-84
2024/01/18 03:02:06;;;;;;;0.60;0.60;;;;;;;;;;4956572;28;20043;-83
2024/01/18 03:04:32;;;;;;;0.60;0.60;;;;;;;;;;4956941;28;20045;-83
2024/01/18 03:06:58;;;;;;;0.60;0.60;;;;;;;;;;4972826;28;20042;-84
2024/01/18 03:09:24;;;;;;;0.50;0.50;;;;;;;;;;4956789;28;20185;-83
2024/01/18 03:11:50;;;;;;;0.50;0.50;;;;;;;;;;4971786;28;20037;-83
2024/01/18 03:14:16;;;;;;;0.50;0.50;;;;;;;;;;4958506;28;20390;-83
2024/01/18 03:16:43;;;;;;;0.50;0.50;;;;;;;;;;4976025;28;20121;-83
2024/01/18 03:19:12;;;;;;;0.50;0.50;;;;;;;;;;4975980;28;20050;-83
2024/01/18 03:21:38;;;;;;;0.50;0.50;;;;;;;;;;4973465;28;20048;-83
2024/01/18 03:24:05;;;;;;;0.50;0.50;;;;;;;;;;4956584;28;20074;-84
2024/01/18 03:26:31;;;;;;;0.50;0.50;;;;;;;;;;4972310;28;20038;-84
2024/01/18 03:28:57;;;;;;;0.60;0.60;;;;;;;;;;4956381;28;20047;-84
2024/01/18 03:31:23;;;;;;;0.50;0.50;;;;;;;;;;4956596;28;20047;-83
2024/01/18 03:33:49;;;;;;;0.60;0.60;;;;;;;;;;4956027;28;20072;-84
2024/01/18 03:36:15;;;;;;;0.50;0.50;;;;;;;;;;4972637;28;20042;-83
2024/01/18 03:38:41;;;;;;;0.55;0.55;;;;;;;;;;4956348;28;20085;-83
2024/01/18 03:41:07;;;;;;;0.50;0.50;;;;;;;;;;4956219;28;20038;-84
2024/01/18 03:43:33;;;;;;;0.50;0.50;;;;;;;;;;4955904;28;20051;-84
2024/01/18 03:45:59;;;;;;;0.50;0.50;;;;;;;;;;4956499;28;20038;-84
2024/01/18 03:48:25;;;;;;;0.50;0.50;;;;;;;;;;4956107;28;20043;-83
2024/01/18 03:50:51;;;;;;;0.50;0.50;;;;;;;;;;4972182;28;20039;-84
2024/01/18 03:53:18;;;;;;;0.50;0.50;;;;;;;;;;4955579;28;20481;-83
2024/01/18 03:55:44;;;;;;;0.55;0.55;;;;;;;;;;4955880;28;20039;-83
2024/01/18 03:58:10;;;;;;;0.50;0.50;;;;;;;;;;4956072;28;20702;-84
2024/01/18 04:00:38;;;;;;;0.50;0.50;;;;;;;;;;4972043;28;20078;-84
2024/01/18 04:03:04;;;;;;;0.50;0.50;;;;;;;;;;4971500;28;20043;-84
2024/01/18 04:05:30;;;;;;;0.55;0.55;;;;;;;;;;4955904;28;20039;-84
2024/01/18 04:07:56;;;;;;;0.50;0.50;;;;;;;;;;4955876;28;20231;-84
2024/01/18 04:10:22;;;;;;;0.50;0.50;;;;;;;;;;4955800;28;20086;-83
2024/01/18 04:12:48;;;;;;;0.60;0.60;;;;;;;;;;4955418;28;20042;-84
2024/01/18 04:15:14;;;;;;;0.50;0.50;;;;;;;;;;4955436;28;20051;-83
2024/01/18 04:17:40;;;;;;;0.50;0.50;;;;;;;;;;4981094;28;20045;-84
2024/01/18 04:20:06;;;;;;;0.50;0.50;;;;;;;;;;4991053;28;20050;-83
2024/01/18 04:22:33;;;;;;;0.50;0.50;;;;;;;;;;4966667;28;20062;-83
2024/01/18 04:24:59;;;;;;;0.50;0.50;;;;;;;;;;4955427;28;20070;-83
2024/01/18 04:27:25;;;;;;;0.50;0.50;;;;;;;;;;4955227;28;20039;-83
2024/01/18 04:29:51;;;;;;;0.50;0.50;;;;;;;;;;4955409;28;20047;-83
2024/01/18 04:32:17;;;;;;;0.50;0.50;;;;;;;;;;4955288;28;20559;-84
2024/01/18 04:34:43;;;;;;;0.57;0.57;;;;;;;;;;4955452;28;20047;-83
2024/01/18 04:37:10;;;;;;;0.50;0.50;;;;;;;;;;4971462;28;20046;-83
2024/01/18 04:39:36;;;;;;;0.60;0.60;;;;;;;;;;4955494;28;20043;-83
2024/01/18 04:42:02;;;;;;;0.50;0.50;;;;;;;;;;4955227;28;20073;-84
2024/01/18 04:44:28;;;;;;;0.50;0.50;;;;;;;;;;4955362;28;20078;-84
2024/01/18 04:46:54;;;;;;;0.50;0.50;;;;;;;;;;4955563;28;20567;-83
2024/01/18 04:49:20;;;;;;;0.60;0.60;;;;;;;;;;4955199;28;20047;-83
2024/01/18 04:51:46;;;;;;;0.57;0.57;;;;;;;;;;4954951;28;20039;-83
2024/01/18 04:54:12;;;;;;;0.50;0.50;;;;;;;;;;4955113;28;20043;-83
2024/01/18 04:56:38;;;;;;;0.52;0.52;;;;;;;;;;4955251;28;20035;-83
2024/01/18 04:59:05;;;;;;;0.60;0.60;;;;;;;;;;4955559;28;20520;-83
2024/01/18 05:01:33;;;;;;;0.50;0.50;;;;;;;;;;4954771;28;20051;-84
2024/01/18 05:03:59;;;;;;;0.52;0.52;;;;;;;;;;4947562;28;20081;-84
2024/01/18 05:06:25;;;;;;;0.50;0.50;;;;;;;;;;4947597;28;20077;-83
2024/01/18 05:08:51;;;;;;;0.50;0.50;;;;;;;;;;4960309;28;20510;-84
2024/01/18 05:11:17;;;;;;;0.57;0.57;;;;;;;;;;4946647;28;20379;-83
2024/01/18 05:13:43;;;;;;;0.60;0.60;;;;;;;;;;4962564;28;20039;-83
2024/01/18 05:16:09;;;;;;;0.50;0.50;;;;;;;;;;4963269;28;20397;-83
2024/01/18 05:18:35;;;;;;;0.50;0.50;;;;;;;;;;4944341;28;20075;-83
2024/01/18 05:21:01;;;;;;;0.60;0.60;;;;;;;;;;4945888;28;20514;-84
2024/01/18 05:23:27;;;;;;;0.52;0.52;;;;;;;;;;4946389;28;20860;-84
2024/01/18 05:25:53;;;;;;;0.50;0.50;;;;;;;;;;4945334;28;20409;-84
2024/01/18 05:28:19;;;;;;;0.50;0.50;;;;;;;;;;4944386;28;20046;-83
2024/01/18 05:30:45;;;;;;;0.50;0.50;;;;;;;;;;4946514;28;20085;-83
2024/01/18 05:33:11;;;;;;;0.60;0.60;;;;;;;;;;4948466;28;20046;-84
2024/01/18 05:35:37;;;;;;;0.50;0.50;;;;;;;;;;4945186;28;20039;-83
2024/01/18 05:38:03;;;;;;;0.50;0.50;;;;;;;;;;4949771;28;20110;-84
2024/01/18 05:40:29;;;;;;;0.60;0.60;;;;;;;;;;4947803;28;20042;-83
2024/01/18 05:42:55;;;;;;;0.60;0.60;;;;;;;;;;4950037;28;20034;-83
2024/01/18 05:45:21;;;;;;;0.50;0.50;;;;;;;;;;4948763;28;20038;-84
2024/01/18 05:47:47;;;;;;;0.52;0.52;;;;;;;;;;4952724;28;20066;-83
2024/01/18 05:50:13;;;;;;;0.57;0.57;;;;;;;;;;4964712;28;20034;-84
2024/01/18 05:52:39;;;;;;;0.50;0.50;;;;;;;;;;4967989;28;20092;-83
2024/01/18 05:55:05;;;;;;;0.50;0.50;;;;;;;;;;4944877;28;20042;-84
2024/01/18 05:57:32;;;;;;;0.60;0.60;;;;;;;;;;4948073;28;20035;-83
2024/01/18 05:59:58;;;;;;;0.50;0.50;;;;;;;;;;4964864;28;20125;-83
2024/01/18 06:02:24;;;;;;;0.50;0.50;;;;;;;;;;4964211;28;20202;-83
2024/01/18 06:04:50;;;;;;;0.60;0.60;;;;;;;;;;4947252;28;20039;-83
2024/01/18 06:07:16;;;;;;;0.57;0.57;;;;;;;;;;4946264;28;20039;-84
2024/01/18 06:09:42;;;;;;;0.60;0.60;;;;;;;;;;4947900;28;20039;-83
2024/01/18 06:12:09;;;;;;;0.50;0.50;;;;;;;;;;4944934;29;20039;-83
2024/01/18 06:14:35;;;;;;;0.60;0.60;;;;;;;;;;4949209;28;20039;-83
2024/01/18 06:17:01;;;;;;;0.50;0.50;;;;;;;;;;4948178;28;20396;-83
2024/01/18 06:19:26;;;;;;;0.60;0.60;;;;;;;;;;4944592;28;20110;-83
2024/01/18 06:21:54;;;;;;;0.60;0.60;;;;;;;;;;4946508;28;20151;-83
2024/01/18 06:24:20;;;;;;;0.50;0.50;;;;;;;;;;4946543;28;20043;-83
2024/01/18 06:26:46;;;;;;;0.50;0.50;;;;;;;;;;4947436;28;20042;-83
2024/01/18 06:29:12;;;;;;;0.60;0.60;;;;;;;;;;4945433;28;20039;-83
2024/01/18 06:31:38;;;;;;;0.60;0.60;;;;;;;;;;4948464;28;20081;-83
2024/01/18 06:34:05;;;;;;;0.60;0.60;;;;;;;;;;4947919;28;20066;-83
2024/01/18 06:36:31;;;;;;;0.50;0.50;;;;;;;;;;4947800;28;20031;-83
2024/01/18 06:38:57;;;;;;;0.50;0.50;;;;;;;;;;4965517;28;20413;-83
2024/01/18 06:41:25;;;;;;;0.50;0.50;;;;;;;;;;4946535;28;20047;-84
2024/01/18 06:43:51;;;;;;;0.50;0.50;;;;;;;;;;4968422;28;20038;-83
2024/01/18 06:46:18;;;;;;;0.60;0.60;;;;;;;;;;4956096;28;20054;-83
2024/01/18 06:48:50;;;;;;;0.50;0.50;;;;;;;;;;4946644;28;20051;-83
2024/01/18 06:51:17;;;;;;;0.57;0.57;;;;;;;;;;4946224;28;20038;-83
2024/01/18 06:53:43;;;;;;;0.50;0.50;;;;;;;;;;4946151;28;20402;-83
2024/01/18 06:56:13;;;;;;;0.45;0.45;;;;;;;;;;4944918;28;20042;-83
2024/01/18 06:58:40;;;;;;;0.60;0.60;;;;;;;;;;4967463;28;20114;-83
2024/01/18 07:01:06;;;;;;;0.55;0.55;;;;;;;;;;4944248;29;20418;-83
2024/01/18 07:03:35;;;;;;;0.50;0.50;;;;;;;;;;4943820;29;20053;-83
2024/01/18 07:06:01;;;;;;;0.50;0.50;;;;;;;;;;4947424;28;20042;-83
2024/01/18 07:08:27;;;;;;;0.50;0.50;;;;;;;;;;4959748;28;20090;-83
2024/01/18 07:10:53;;;;;;;0.60;0.60;;;;;;;;;;4961556;28;20083;-83
2024/01/18 07:13:19;;;;;;;0.50;0.50;;;;;;;;;;4944469;28;20045;-83
2024/01/18 07:15:45;;;;;;;0.50;0.50;;;;;;;;;;4948379;28;20035;-83
2024/01/18 07:18:11;;;;;;;0.50;0.50;;;;;;;;;;4947144;28;20043;-84
2024/01/18 07:20:37;;;;;;;0.50;0.50;;;;;;;;;;4946351;28;20098;-83
2024/01/18 07:23:03;;;;;;;0.45;0.45;;;;;;;;;;4948028;28;20404;-83
2024/01/18 07:25:29;;;;;;;0.50;0.50;;;;;;;;;;4959379;28;20030;-83
2024/01/18 07:27:55;;;;;;;0.50;0.50;;;;;;;;;;4945837;28;20070;-83
2024/01/18 07:30:22;;;;;;;0.50;0.50;;;;;;;;;;4944018;28;20038;-83
2024/01/18 07:32:48;;;;;;;0.50;0.50;;;;;;;;;;4944487;28;20066;-83
2024/01/18 07:35:14;;;;;;;0.50;0.50;;;;;;;;;;4958434;28;20076;-83
2024/01/18 07:37:40;;;;;;;0.50;0.50;;;;;;;;;;4945917;28;20039;-83
2024/01/18 07:40:06;;;;;;;0.50;0.50;;;;;;;;;;4943298;28;20041;-83
2024/01/18 07:42:33;;;;;;;0.50;0.50;;;;;;;;;;4945627;28;20050;-83
2024/01/18 07:44:59;;;;;;;0.60;0.60;;;;;;;;;;4942679;28;20047;-83
2024/01/18 07:47:25;;;;;;;0.45;0.45;;;;;;;;;;4945802;28;20656;-83
2024/01/18 07:49:51;;;;;;;0.50;0.50;;;;;;;;;;4943920;28;20035;-83
2024/01/18 07:52:20;;;;;;;0.55;0.55;;;;;;;;;;4959499;28;20038;-83
2024/01/18 07:54:49;;;;;;;0.50;0.50;;;;;;;;;;4950464;28;20049;-83
2024/01/18 07:57:16;;;;;;;0.60;0.60;;;;;;;;;;4954026;28;20046;-83
2024/01/18 07:59:42;;;;;;;0.50;0.50;;;;;;;;;;4946675;28;20054;-83
2024/01/18 08:02:09;;;;;;;0.60;0.60;;;;;;;;;;4945604;28;20038;-83
2024/01/18 08:04:35;;;;;;;0.60;0.60;;;;;;;;;;4943190;28;20043;-83
2024/01/18 08:07:01;;;;;;;0.60;0.60;;;;;;;;;;4946968;28;20048;-83
2024/01/18 08:09:27;;;;;;;0.60;0.60;;;;;;;;;;4943307;28;20102;-83
2024/01/18 08:11:53;;;;;;;0.50;0.50;;;;;;;;;;4961741;28;20049;-83
2024/01/18 08:14:19;;;;;;;0.60;0.60;;;;;;;;;;4942057;28;20071;-83
2024/01/18 08:16:45;;;;;;;0.50;0.50;;;;;;;;;;4960827;28;20045;-83
2024/01/18 08:19:11;;;;;;;0.60;0.60;;;;;;;;;;4944264;28;20042;-83
2024/01/18 08:21:43;;;;;;;0.60;0.60;;;;;;;;;;4945819;28;20045;-84
2024/01/18 08:24:09;;;;;;;0.60;0.60;;;;;;;;;;4945164;28;20050;-83
2024/01/18 08:26:35;;;;;;;0.57;0.57;;;;;;;;;;4948598;28;20489;-83
2024/01/18 08:29:01;;;;;;;0.50;0.50;;;;;;;;;;4942972;29;20050;-84
2024/01/18 08:31:28;;;;;;;0.60;0.60;;;;;;;;;;4948426;28;20043;-83
2024/01/18 08:33:53;;;;;;;0.60;0.60;;;;;;;;;;4952193;28;20080;-83
2024/01/18 08:36:20;;;;;;;0.55;0.55;;;;;;;;;;4945578;28;20066;-82
2024/01/18 08:38:46;;;;;;;0.60;0.60;;;;;;;;;;4949891;28;20064;-83
2024/01/18 08:41:11;;;;;;;0.55;0.55;;;;;;;;;;4946596;28;20047;-82
2024/01/18 08:43:37;;;;;;;0.60;0.60;;;;;;;;;;4945548;28;20395;-83
2024/01/18 08:46:06;;;;;;;0.50;0.50;;;;;;;;;;4944867;28;20050;-83
2024/01/18 08:48:33;;;;;;;0.50;0.50;;;;;;;;;;4951447;28;20046;-83
2024/01/18 08:50:59;;;;;;;0.60;0.60;;;;;;;;;;4948096;28;20042;-83
2024/01/18 08:53:25;;;;;;;0.43;0.43;;;;;;;;;;4967732;28;20034;-83
2024/01/18 08:55:51;;;;;;;0.60;0.60;;;;;;;;;;4942432;28;20039;-83
2024/01/18 08:58:17;;;;;;;0.47;0.47;;;;;;;;;;4953653;28;20035;-83
2024/01/18 09:00:43;;;;;;;0.50;0.50;;;;;;;;;;4968333;28;20034;-83
2024/01/18 09:03:09;;;;;;;0.50;0.50;;;;;;;;;;4974220;28;20677;-83
2024/01/18 09:05:35;;;;;;;0.50;0.50;;;;;;;;;;4951228;28;20075;-83
2024/01/18 09:08:01;;;;;;;0.60;0.60;;;;;;;;;;4945229;28;20125;-83
2024/01/18 09:10:27;;;;;;;0.57;0.57;;;;;;;;;;4966459;28;20043;-82
2024/01/18 09:12:53;;;;;;;0.50;0.50;;;;;;;;;;4943775;28;20049;-83
2024/01/18 09:15:19;;;;;;;0.50;0.50;;;;;;;;;;4948590;28;20046;-84
2024/01/18 09:17:45;;;;;;;0.60;0.60;;;;;;;;;;4948421;28;20038;-84
2024/01/18 09:20:11;;;;;;;0.50;0.50;;;;;;;;;;4955363;28;20043;-83
2024/01/18 09:22:37;;;;;;;0.50;0.50;;;;;;;;;;4965027;28;20113;-83
2024/01/18 09:25:03;;;;;;;0.50;0.50;;;;;;;;;;4950730;28;20150;-83
2024/01/18 09:27:29;;;;;;;0.50;0.50;;;;;;;;;;4947718;28;20153;-83
2024/01/18 09:29:55;;;;;;;0.50;0.50;;;;;;;;;;4965986;28;20129;-82
2024/01/18 09:32:21;;;;;;;0.50;0.50;;;;;;;;;;4962241;28;20090;-83
2024/01/18 09:34:48;;;;;;;0.50;0.50;;;;;;;;;;4961933;28;20038;-83
2024/01/18 09:37:14;;;;;;;1.05;1.00;;;;;;;;;;4961815;28;20378;-83
2024/01/18 09:39:41;;;;;;;0.65;0.65;;;;;;;;;;4960770;28;20102;-83
2024/01/18 09:42:14;;;;;;;0.98;0.98;;;;;;;;;;4960392;28;20454;-83
2024/01/18 09:44:45;;;;;;;0.85;0.85;;;;;;;;;;4960573;28;20038;-83
2024/01/18 09:47:12;;;;;;;0.50;0.50;;;;;;;;;;4954194;28;20137;-83
2024/01/18 09:49:40;;;;;;;3.13;2.08;;;;;;;;;;4965829;28;20042;-83
2024/01/18 09:52:05;;;;;;;0.50;0.50;;;;;;;;;;4978231;28;20039;-83
2024/01/18 09:54:32;;;;;;;0.50;0.50;;;;;;;;;;4965159;28;20081;-83
2024/01/18 09:57:00;;;;;;;0.50;0.50;;;;;;;;;;4964245;28;20046;-83
2024/01/18 09:59:27;;;;;;;0.50;0.50;;;;;;;;;;4980623;28;20050;-83
2024/01/18 10:01:54;;;;;;;0.60;0.60;;;;;;;;;;4979094;28;20461;-83
2024/01/18 10:04:20;;;;;;;0.50;0.50;;;;;;;;;;4963182;28;20548;-83
2024/01/18 10:06:46;;;;;;;0.50;0.50;;;;;;;;;;4963332;28;20047;-84
2024/01/18 10:09:14;;;;;;;0.50;0.50;;;;;;;;;;4961239;28;20034;-84
2024/01/18 10:11:47;;;;;;;0.60;0.60;;;;;;;;;;4958233;28;20069;-85
2024/01/18 10:14:13;;;;;;;0.50;0.50;;;;;;;;;;4953720;28;20030;-84
2024/01/18 10:16:40;;;;;;;0.52;0.52;;;;;;;;;;4955459;28;20035;-84
2024/01/18 10:19:14;;;;;;;0.50;0.50;;;;;;;;;;4950294;28;20058;-84
2024/01/18 10:21:44;;;;;;;0.50;0.50;;;;;;;;;;4954434;28;20620;-84
2024/01/18 10:24:14;;;;;;;0.50;0.50;;;;;;;;;;4969373;28;20062;-88
2024/01/18 10:26:40;;;;;;;0.50;0.50;;;;;;;;;;4960978;28;20034;-88
2024/01/18 10:29:08;;;;;;;0.50;0.50;;;;;;;;;;4957524;28;20429;-87
2024/01/18 10:31:38;;;;;;;0.40;0.40;;;;;;;;;;4962717;28;20117;-87
2024/01/18 10:34:04;;;;;;;0.50;0.50;;;;;;;;;;4958331;28;20096;-88
2024/01/18 10:36:32;;;;;;;0.60;0.60;;;;;;;;;;4962279;28;20114;-88
2024/01/18 10:38:58;;;;;;;0.50;0.50;;;;;;;;;;4966079;28;20130;-88
2024/01/18 10:41:24;;;;;;;0.50;0.50;;;;;;;;;;4954451;28;20050;-88
2024/01/18 10:43:50;;;;;;;0.52;0.52;;;;;;;;;;4953780;28;20493;-87
2024/01/18 10:46:19;;;;;;;0.50;0.50;;;;;;;;;;4954731;28;20054;-87
2024/01/18 10:48:47;;;;;;;0.50;0.50;;;;;;;;;;4951647;28;20264;-87
2024/01/18 10:51:13;;;;;;;0.60;0.60;;;;;;;;;;4959980;28;20046;-88
2024/01/18 10:53:41;;;;;;;0.60;0.60;;;;;;;;;;4944569;28;20042;-88
2024/01/18 10:56:07;;;;;;;0.50;0.50;;;;;;;;;;4945817;28;20061;-87
2024/01/18 10:58:33;;;;;;;0.50;0.50;;;;;;;;;;4967682;28;20117;-87
2024/01/18 11:00:59;;;;;;;0.50;0.50;;;;;;;;;;4950803;28;20039;-87
2024/01/18 11:03:25;;;;;;;0.50;0.50;;;;;;;;;;4943734;28;20035;-87
2024/01/18 11:05:51;;;;;;;0.50;0.50;;;;;;;;;;4951332;28;20035;-88
2024/01/18 11:08:17;;;;;;;0.50;0.50;;;;;;;;;;4952955;28;20035;-88
2024/01/18 11:10:44;;;;;;;0.50;0.50;;;;;;;;;;4951544;28;20085;-88
2024/01/18 11:13:11;;;;;;;0.52;0.52;;;;;;;;;;4952827;28;20066;-87
2024/01/18 11:15:39;;;;;;;0.50;0.50;;;;;;;;;;4947618;28;20508;-88
2024/01/18 11:18:11;;;;;;;0.50;0.50;;;;;;;;;;4968114;28;20121;-88
2024/01/18 11:20:56;;;;;;;0.50;0.50;;;;;;;;;;4950005;28;20074;-88
2024/01/18 11:23:23;;;;;;;0.40;0.40;;;;;;;;;;4955413;28;20093;-88
2024/01/18 11:25:49;;;;;;;0.50;0.50;;;;;;;;;;4960459;28;20382;-88
2024/01/18 11:28:25;;;;;;;0.50;0.50;;;;;;;;;;4958258;28;20042;-89
2024/01/18 11:30:51;;;;;;;0.55;0.55;;;;;;;;;;4957484;28;20046;-88
2024/01/18 11:33:18;;;;;;;0.50;0.50;;;;;;;;;;4949759;28;20038;-88
2024/01/18 11:35:44;;;;;;;0.45;0.45;;;;;;;;;;4954966;28;20133;-88
2024/01/18 11:38:20;;;;;;;0.50;0.50;;;;;;;;;;4953869;28;20061;-88
2024/01/18 11:40:47;;;;;;;0.50;0.50;;;;;;;;;;4944951;29;20047;-88
2024/01/18 11:43:13;;;;;;;0.50;0.50;;;;;;;;;;4941879;28;20035;-87
2024/01/18 11:45:42;;;;;;;0.47;0.47;;;;;;;;;;4943307;28;20090;-88
2024/01/18 11:48:08;;;;;;;0.40;0.40;;;;;;;;;;4942397;28;20097;-88
2024/01/18 11:50:34;;;;;;;0.50;0.50;;;;;;;;;;4964540;28;20045;-88
2024/01/18 11:53:01;;;;;;;0.40;0.40;;;;;;;;;;4942048;28;20043;-87
2024/01/18 11:55:30;;;;;;;0.50;0.50;;;;;;;;;;4946124;28;20418;-88
2024/01/18 11:58:01;;;;;;;0.50;0.50;;;;;;;;;;4944370;28;20047;-88
2024/01/18 12:00:28;;;;;;;0.50;0.50;;;;;;;;;;4946334;28;20085;-88
2024/01/18 12:02:55;;;;;;;0.50;0.50;;;;;;;;;;4943394;28;20513;-88
2024/01/18 12:05:21;;;;;;;0.50;0.50;;;;;;;;;;4946449;28;20053;-88
2024/01/18 12:07:50;;;;;;;0.50;0.50;;;;;;;;;;4945056;28;20145;-88
2024/01/18 12:10:16;;;;;;;0.50;0.50;;;;;;;;;;4946711;28;20039;-88
2024/01/18 12:12:44;;;;;;;0.50;0.50;;;;;;;;;;4942894;28;20039;-88
2024/01/18 12:15:10;;;;;;;0.50;0.50;;;;;;;;;;4943119;28;20035;-88
2024/01/18 12:17:36;;;;;;;0.50;0.50;;;;;;;;;;4945841;28;20049;-88
2024/01/18 12:20:03;;;;;;;0.50;0.50;;;;;;;;;;4940451;28;20130;-88
2024/01/18 12:22:29;;;;;;;0.40;0.40;;;;;;;;;;4948072;28;20792;-88
2024/01/18 12:24:54;;;;;;;0.40;0.40;;;;;;;;;;4945413;28;20074;-89
2024/01/18 12:27:20;;;;;;;0.50;0.50;;;;;;;;;;4944169;28;20065;-89
2024/01/18 12:29:46;;;;;;;0.50;0.50;;;;;;;;;;4951497;28;20054;-89
2024/01/18 12:32:16;;;;;;;0.50;0.50;;;;;;;;;;4942645;28;20034;-90
2024/01/18 12:34:42;;;;;;;0.50;0.50;;;;;;;;;;4955672;28;20125;-90
2024/01/18 12:37:11;;;;;;;0.60;0.60;;;;;;;;;;4940641;28;20159;-89
2024/01/18 12:39:37;;;;;;;0.50;0.50;;;;;;;;;;4944159;29;20039;-89
2024/01/18 12:42:03;;;;;;;0.45;0.45;;;;;;;;;;4941229;28;20405;-89
2024/01/18 12:44:30;;;;;;;0.50;0.50;;;;;;;;;;4954657;28;20046;-90
2024/01/18 12:46:58;;;;;;;0.50;0.50;;;;;;;;;;4950241;29;20047;-89
2024/01/18 12:49:25;;;;;;;0.50;0.50;;;;;;;;;;4941154;28;20045;-89
2024/01/18 12:51:55;;;;;;;0.50;0.50;;;;;;;;;;4942821;28;20048;-90
2024/01/18 12:54:23;;;;;;;0.50;0.50;;;;;;;;;;4941758;28;20031;-86
2024/01/18 12:57:15;;;;;;;0.52;0.52;;;;;;;;;;4942464;28;20090;-86
2024/01/18 12:59:41;;;;;;;0.50;0.50;;;;;;;;;;4943837;28;20043;-87
2024/01/18 13:02:07;;;;;;;0.50;0.50;;;;;;;;;;4943964;28;20089;-87
2024/01/18 13:04:35;;;;;;;0.50;0.50;;;;;;;;;;4959324;28;20038;-89
2024/01/18 13:07:11;;;;;;;0.50;0.50;;;;;;;;;;4946618;28;20122;-88
2024/01/18 13:09:37;;;;;;;0.50;0.50;;;;;;;;;;4942851;29;20390;-87
2024/01/18 13:12:03;;;;;;;0.50;0.50;;;;;;;;;;4951201;28;20066;-88
2024/01/18 13:14:29;;;;;;;0.43;0.43;;;;;;;;;;4948185;28;20042;-88
2024/01/18 13:16:56;;;;;;;0.52;0.52;;;;;;;;;;4962312;28;20050;-87
2024/01/18 13:19:22;;;;;;;0.50;0.50;;;;;;;;;;4943488;28;20122;-87
2024/01/18 13:21:52;;;;;;;0.60;0.60;;;;;;;;;;4949680;28;20531;-88
2024/01/18 13:24:18;;;;;;;0.50;0.50;;;;;;;;;;4938519;28;20130;-87
2024/01/18 13:26:44;;;;;;;0.50;0.50;;;;;;;;;;4969994;28;20050;-88
2024/01/18 13:29:10;;;;;;;0.50;0.50;;;;;;;;;;4958337;28;20078;-88
2024/01/18 13:31:37;;;;;;;0.60;0.60;;;;;;;;;;4946205;28;20051;-87
2024/01/18 13:34:03;;;;;;;0.50;0.50;;;;;;;;;;4953642;28;20035;-87
2024/01/18 13:36:29;;;;;;;0.47;0.47;;;;;;;;;;4943640;28;20516;-87
2024/01/18 13:38:55;;;;;;;0.50;0.50;;;;;;;;;;4954219;28;20053;-87
2024/01/18 13:41:22;;;;;;;0.40;0.40;;;;;;;;;;4958366;28;20047;-88
2024/01/18 13:43:48;;;;;;;0.50;0.50;;;;;;;;;;4938101;28;20504;-88
2024/01/18 13:46:14;;;;;;;0.50;0.50;;;;;;;;;;4938590;29;20098;-88
2024/01/18 13:48:42;;;;;;;0.50;0.50;;;;;;;;;;4949914;28;20051;-88
2024/01/18 13:51:08;;;;;;;0.50;0.50;;;;;;;;;;4952074;28;20075;-87
2024/01/18 13:53:34;;;;;;;0.50;0.50;;;;;;;;;;4968831;28;20042;-87
2024/01/18 13:56:02;;;;;;;0.50;0.50;;;;;;;;;;4944049;29;20040;-87
2024/01/18 13:58:28;;;;;;;0.50;0.50;;;;;;;;;;4957937;28;20413;-88
2024/01/18 14:00:54;;;;;;;0.52;0.52;;;;;;;;;;4940310;28;20039;-89
2024/01/18 14:03:20;;;;;;;0.50;0.50;;;;;;;;;;4974019;28;20090;-89
2024/01/18 14:05:47;;;;;;;0.50;0.50;;;;;;;;;;4974223;28;20034;-88
2024/01/18 14:08:13;;;;;;;0.47;0.47;;;;;;;;;;4942282;28;20118;-88
2024/01/18 14:10:39;;;;;;;0.50;0.50;;;;;;;;;;4953810;28;20394;-91
2024/01/18 14:13:06;;;;;;;0.50;0.50;;;;;;;;;;4945288;28;20037;-88
2024/01/18 14:15:33;;;;;;;0.40;0.40;;;;;;;;;;4951107;28;20177;-88
2024/01/18 14:17:59;;;;;;;0.50;0.50;;;;;;;;;;4948262;28;20058;-88
2024/01/18 14:20:25;;;;;;;0.50;0.50;;;;;;;;;;4951743;28;20050;-88
2024/01/18 14:22:51;;;;;;;0.40;0.40;;;;;;;;;;4946388;28;20043;-89
2024/01/18 14:25:17;;;;;;;0.50;0.50;;;;;;;;;;4944363;28;20049;-88
2024/01/18 14:27:43;;;;;;;0.50;0.50;;;;;;;;;;4966122;28;20046;-88
2024/01/18 14:30:09;;;;;;;0.60;0.60;;;;;;;;;;4945161;28;20461;-88
2024/01/18 14:32:36;;;;;;;0.50;0.50;;;;;;;;;;4961077;28;20122;-87
2024/01/18 14:35:02;;;;;;;0.50;0.50;;;;;;;;;;4945269;29;20051;-88
2024/01/18 14:37:28;;;;;;;0.50;0.50;;;;;;;;;;4952252;28;20517;-88
2024/01/18 14:39:54;;;;;;;0.50;0.50;;;;;;;;;;4944827;28;20058;-88